Time;durP1;ratioP1;P1;durP2;ratioP2;P2;SDS_P1;SDS_P2;PMS_P1;PMS_P2;Temp;Humidity;BMP_temperature;BMP_pressure;BME280_temperature;BME280_humidity;BME280_pressure;Samples;Min_cycle;Max_cycle;Signal;HPM_P1;HPM_P2
2023/06/02 00:02:19;;;;;;;8.32;4.50;;;13.20;99.90;;;;;;5050640;28;20047;-71
2023/06/02 00:04:45;;;;;;;10.57;4.35;;;13.20;99.90;;;;;;5050950;28;20025;-72
2023/06/02 00:07:11;;;;;;;8.77;4.10;;;13.30;99.90;;;;;;5050965;28;20045;-71
2023/06/02 00:09:42;;;;;;;9.60;3.30;;;13.30;99.90;;;;;;5050800;28;20411;-71
2023/06/02 00:12:09;;;;;;;9.65;4.05;;;13.30;99.90;;;;;;5050866;28;20190;-71
2023/06/02 00:14:38;;;;;;;9.63;3.80;;;13.30;99.90;;;;;;5051444;28;20033;-71
2023/06/02 00:17:04;;;;;;;12.43;3.92;;;13.40;99.90;;;;;;5051130;28;20100;-71
2023/06/02 00:19:30;;;;;;;9.32;3.55;;;13.30;99.90;;;;;;5051661;28;20159;-71
2023/06/02 00:22:06;;;;;;;11.43;3.75;;;13.30;99.90;;;;;;5051102;28;20308;-71
2023/06/02 00:24:32;;;;;;;9.57;3.38;;;13.30;99.90;;;;;;5051530;28;20021;-72
2023/06/02 00:26:58;;;;;;;6.88;3.22;;;13.30;99.90;;;;;;5050419;28;20443;-72
2023/06/02 00:29:24;;;;;;;8.20;3.53;;;13.30;99.90;;;;;;5050094;28;20121;-71
2023/06/02 00:31:50;;;;;;;9.00;3.33;;;13.30;99.90;;;;;;5049361;28;20036;-72
2023/06/02 00:34:16;;;;;;;12.70;4.05;;;13.30;99.90;;;;;;5051121;28;20029;-71
2023/06/02 00:36:41;;;;;;;9.43;3.42;;;13.30;99.90;;;;;;5051242;28;20244;-71
2023/06/02 00:39:07;;;;;;;9.77;3.60;;;13.20;99.90;;;;;;5050827;28;20063;-71
2023/06/02 00:41:33;;;;;;;10.68;2.95;;;13.20;99.90;;;;;;5051339;28;20108;-71
2023/06/02 00:43:59;;;;;;;11.40;3.78;;;13.20;99.90;;;;;;5051156;28;20100;-71
2023/06/02 00:46:25;;;;;;;10.63;3.78;;;13.20;99.90;;;;;;5051325;28;20113;-71
2023/06/02 00:48:51;;;;;;;8.93;3.38;;;13.10;99.90;;;;;;5050864;28;20087;-71
2023/06/02 00:51:18;;;;;;;8.30;3.97;;;13.20;99.90;;;;;;5051509;28;20053;-72
2023/06/02 00:53:45;;;;;;;8.18;3.13;;;13.10;99.90;;;;;;5051399;28;20028;-72
2023/06/02 00:56:16;;;;;;;14.38;3.45;;;13.10;99.90;;;;;;5050876;28;20029;-71
2023/06/02 00:58:45;;;;;;;9.43;3.60;;;13.10;99.90;;;;;;5051083;28;20134;-72
2023/06/02 01:01:12;;;;;;;10.73;3.83;;;13.10;99.90;;;;;;5050894;28;20051;-72
2023/06/02 01:03:43;;;;;;;15.93;3.58;;;13.10;99.90;;;;;;5051136;28;20412;-72
2023/06/02 01:06:10;;;;;;;10.00;3.88;;;13.00;99.90;;;;;;5050627;28;20025;-72
2023/06/02 01:08:39;;;;;;;14.05;3.97;;;13.00;99.90;;;;;;5050996;28;20111;-72
2023/06/02 01:11:06;;;;;;;13.23;4.20;;;13.00;99.90;;;;;;5050280;28;20501;-71
2023/06/02 01:13:32;;;;;;;9.07;3.65;;;13.00;99.90;;;;;;5049939;28;20374;-71
2023/06/02 01:15:58;;;;;;;11.70;4.00;;;13.00;99.90;;;;;;5051132;28;20025;-71
2023/06/02 01:18:25;;;;;;;12.57;3.67;;;12.90;99.90;;;;;;5049743;28;20438;-71
2023/06/02 01:20:57;;;;;;;9.48;3.60;;;12.90;99.90;;;;;;5050772;28;20369;-73
2023/06/02 01:23:36;;;;;;;7.63;3.87;;;12.90;99.90;;;;;;5051047;28;20051;-73
2023/06/02 01:26:05;;;;;;;13.82;3.70;;;12.90;99.90;;;;;;5050038;28;20055;-72
2023/06/02 01:28:31;;;;;;;16.00;4.25;;;12.90;99.90;;;;;;5050652;28;20025;-73
2023/06/02 01:31:20;;;;;;;10.10;3.70;;;12.90;99.90;;;;;;5048951;28;20021;-73
2023/06/02 01:34:05;;;;;;;13.43;4.40;;;12.90;99.90;;;;;;5049690;28;20106;-73
2023/06/02 01:36:34;;;;;;;10.90;3.80;;;12.90;99.90;;;;;;5049865;28;20031;-73
2023/06/02 01:39:01;;;;;;;12.02;4.07;;;12.80;99.90;;;;;;5049981;28;20029;-73
2023/06/02 01:41:28;;;;;;;9.48;3.88;;;12.80;99.90;;;;;;5049165;28;20040;-73
2023/06/02 01:43:56;;;;;;;12.95;4.00;;;12.70;99.90;;;;;;5048325;28;20025;-73
2023/06/02 01:46:24;;;;;;;13.63;4.38;;;12.70;99.90;;;;;;5049927;28;20035;-73
2023/06/02 01:48:54;;;;;;;8.95;3.67;;;12.70;99.90;;;;;;5048099;28;20066;-75
2023/06/02 01:51:19;;;;;;;10.13;4.22;;;12.70;99.90;;;;;;5048476;28;20025;-72
2023/06/02 01:53:45;;;;;;;12.82;4.00;;;12.70;99.90;;;;;;5050106;28;20033;-72
2023/06/02 01:56:11;;;;;;;15.98;4.82;;;12.70;99.90;;;;;;5049341;28;20032;-72
2023/06/02 01:58:37;;;;;;;11.25;4.45;;;12.70;99.90;;;;;;5049893;28;20100;-72
2023/06/02 02:01:02;;;;;;;11.82;3.92;;;12.70;99.90;;;;;;5047702;28;20029;-73
2023/06/02 02:03:32;;;;;;;9.65;3.90;;;12.60;99.90;;;;;;5050156;28;20025;-72
2023/06/02 02:05:59;;;;;;;13.27;4.60;;;12.60;99.90;;;;;;5049355;28;20053;-73
2023/06/02 02:08:25;;;;;;;13.90;4.20;;;12.50;99.90;;;;;;5049882;28;20445;-72
2023/06/02 02:10:51;;;;;;;12.40;4.68;;;12.50;99.90;;;;;;5050592;28;20111;-75
2023/06/02 02:13:17;;;;;;;12.82;4.50;;;12.50;99.90;;;;;;5054212;28;20115;-72
2023/06/02 02:15:43;;;;;;;13.02;4.03;;;12.50;99.90;;;;;;5054306;28;20112;-73
2023/06/02 02:18:09;;;;;;;10.73;3.90;;;12.50;99.90;;;;;;5053427;28;20021;-72
2023/06/02 02:20:42;;;;;;;15.27;4.78;;;12.50;99.90;;;;;;5053835;28;20029;-73
2023/06/02 02:23:07;;;;;;;16.35;4.13;;;12.50;99.90;;;;;;5052507;28;20069;-72
2023/06/02 02:25:33;;;;;;;13.85;4.63;;;12.40;99.90;;;;;;5053487;28;20049;-73
2023/06/02 02:27:59;;;;;;;11.02;4.10;;;12.50;99.90;;;;;;5053467;28;20041;-72
2023/06/02 02:30:26;;;;;;;14.60;4.43;;;12.50;99.90;;;;;;5054068;28;20033;-72
2023/06/02 02:32:52;;;;;;;13.43;4.55;;;12.50;99.90;;;;;;5053591;28;20060;-74
2023/06/02 02:35:17;;;;;;;12.35;4.78;;;12.40;99.90;;;;;;5053863;28;20142;-72
2023/06/02 02:37:44;;;;;;;10.35;4.20;;;12.40;99.90;;;;;;5052477;28;20033;-72
2023/06/02 02:40:10;;;;;;;11.10;4.40;;;12.40;99.90;;;;;;5053279;28;20534;-72
2023/06/02 02:42:36;;;;;;;9.98;4.57;;;12.40;99.90;;;;;;5054205;28;20025;-73
2023/06/02 02:45:05;;;;;;;10.40;4.85;;;12.40;99.90;;;;;;5053385;28;20465;-71
2023/06/02 02:47:30;;;;;;;19.23;5.72;;;12.30;99.90;;;;;;5052825;28;20413;-71
2023/06/02 02:49:56;;;;;;;10.32;4.57;;;12.40;99.90;;;;;;5053366;28;20141;-72
2023/06/02 02:52:24;;;;;;;14.90;4.75;;;12.30;99.90;;;;;;5054261;28;20424;-71
2023/06/02 02:54:49;;;;;;;11.35;4.57;;;12.30;99.90;;;;;;5053943;28;20033;-71
2023/06/02 02:57:15;;;;;;;18.10;5.03;;;12.40;99.90;;;;;;5053002;28;20522;-71
2023/06/02 02:59:41;;;;;;;14.30;4.47;;;12.30;99.90;;;;;;5053546;28;20529;-71
2023/06/02 03:02:08;;;;;;;16.00;5.50;;;12.30;99.90;;;;;;5052896;28;20107;-71
2023/06/02 03:04:34;;;;;;;14.40;4.40;;;12.30;99.90;;;;;;5053491;28;20428;-71
2023/06/02 03:07:04;;;;;;;14.10;4.35;;;12.30;99.90;;;;;;5052744;28;20021;-71
2023/06/02 03:09:30;;;;;;;12.80;4.80;;;12.30;99.90;;;;;;5053461;28;20032;-71
2023/06/02 03:11:57;;;;;;;11.80;4.07;;;12.30;99.90;;;;;;5052922;28;20028;-73
2023/06/02 03:14:24;;;;;;;12.88;4.75;;;12.30;99.90;;;;;;5053306;28;20021;-70
2023/06/02 03:16:50;;;;;;;9.88;4.32;;;12.30;99.90;;;;;;5053100;28;20021;-71
2023/06/02 03:19:16;;;;;;;19.02;4.75;;;12.20;99.90;;;;;;5052471;28;20029;-71
2023/06/02 03:21:42;;;;;;;15.80;5.30;;;12.20;99.90;;;;;;5052411;28;20366;-71
2023/06/02 03:24:19;;;;;;;10.90;4.70;;;12.10;99.90;;;;;;5052436;28;20021;-71
2023/06/02 03:26:45;;;;;;;17.75;4.85;;;12.10;99.90;;;;;;5052628;28;20060;-71
2023/06/02 03:29:14;;;;;;;12.00;4.53;;;12.10;99.90;;;;;;5050925;28;20434;-71
2023/06/02 03:31:44;;;;;;;12.45;4.90;;;12.10;99.90;;;;;;5052842;28;20048;-71
2023/06/02 03:34:10;;;;;;;12.60;4.60;;;12.10;99.90;;;;;;5051983;28;20021;-71
2023/06/02 03:36:36;;;;;;;12.93;4.47;;;12.10;99.90;;;;;;5052932;28;20373;-71
2023/06/02 03:39:06;;;;;;;9.60;4.25;;;12.10;99.90;;;;;;5052002;28;20029;-71
2023/06/02 03:41:32;;;;;;;18.20;4.75;;;12.10;99.90;;;;;;5052364;28;20501;-71
2023/06/02 03:43:58;;;;;;;14.70;4.05;;;12.10;99.90;;;;;;5051921;28;20063;-73
2023/06/02 03:46:24;;;;;;;15.57;4.95;;;12.20;99.90;;;;;;5052117;28;20053;-72
2023/06/02 03:48:49;;;;;;;16.73;4.72;;;12.20;99.90;;;;;;5052261;28;20072;-71
2023/06/02 03:51:15;;;;;;;9.05;4.18;;;12.20;99.90;;;;;;5050465;28;20094;-71
2023/06/02 03:53:41;;;;;;;10.57;4.05;;;12.20;99.90;;;;;;5052213;28;20395;-71
2023/06/02 03:56:06;;;;;;;10.88;4.28;;;12.20;99.90;;;;;;5051804;28;20028;-71
2023/06/02 03:58:32;;;;;;;15.80;5.22;;;12.20;99.90;;;;;;5052149;28;20132;-70
2023/06/02 04:00:58;;;;;;;10.02;4.43;;;12.20;99.90;;;;;;5051927;28;20029;-73
2023/06/02 04:03:24;;;;;;;9.55;4.30;;;12.30;99.90;;;;;;5051842;28;20494;-71
2023/06/02 04:05:50;;;;;;;10.13;4.25;;;12.30;99.90;;;;;;5052121;28;20025;-71
2023/06/02 04:08:16;;;;;;;9.75;4.70;;;12.30;99.90;;;;;;5051543;28;20025;-71
2023/06/02 04:10:43;;;;;;;12.60;4.38;;;12.30;99.90;;;;;;5051956;28;20029;-71
2023/06/02 04:13:09;;;;;;;16.38;5.13;;;12.30;99.90;;;;;;5051625;28;20017;-71
2023/06/02 04:15:34;;;;;;;15.40;4.70;;;12.30;99.90;;;;;;5052082;28;20025;-71
2023/06/02 04:18:00;;;;;;;13.00;4.82;;;12.40;99.90;;;;;;5051247;28;20103;-73
2023/06/02 04:20:26;;;;;;;10.80;4.43;;;12.40;99.90;;;;;;5050654;28;20064;-71
2023/06/02 04:22:51;;;;;;;16.38;5.13;;;12.30;99.90;;;;;;5051919;28;20040;-71
2023/06/02 04:25:17;;;;;;;12.82;5.00;;;12.30;99.90;;;;;;5051442;28;20067;-71
2023/06/02 04:27:43;;;;;;;13.30;5.63;;;12.30;99.90;;;;;;5051863;28;20421;-71
2023/06/02 04:30:09;;;;;;;12.38;4.70;;;12.30;99.90;;;;;;5050933;28;20052;-71
2023/06/02 04:32:35;;;;;;;20.40;4.97;;;12.20;99.90;;;;;;5051512;28;20025;-71
2023/06/02 04:35:02;;;;;;;15.02;5.10;;;12.20;99.90;;;;;;5050791;28;20111;-74
2023/06/02 04:37:28;;;;;;;15.32;4.75;;;12.20;99.90;;;;;;5051723;28;20116;-71
2023/06/02 04:39:55;;;;;;;13.18;4.85;;;12.20;99.90;;;;;;5051663;28;20247;-71
2023/06/02 04:42:21;;;;;;;17.42;4.75;;;12.10;99.90;;;;;;5051269;28;20033;-72
2023/06/02 04:44:48;;;;;;;9.10;4.57;;;12.10;99.90;;;;;;5051186;28;20058;-71
2023/06/02 04:47:14;;;;;;;14.48;5.25;;;12.10;99.90;;;;;;5050562;28;20391;-73
2023/06/02 04:49:40;;;;;;;12.77;4.70;;;12.10;99.90;;;;;;5050694;28;20048;-73
2023/06/02 04:52:09;;;;;;;17.00;4.97;;;12.10;99.90;;;;;;5049982;28;20025;-70
2023/06/02 04:54:35;;;;;;;16.20;3.95;;;12.10;99.90;;;;;;5050736;28;20100;-70
2023/06/02 04:57:05;;;;;;;10.10;4.45;;;12.20;99.90;;;;;;5050680;28;20104;-73
2023/06/02 04:59:35;;;;;;;12.63;4.38;;;12.10;99.90;;;;;;5050192;28;20028;-71
2023/06/02 05:02:01;;;;;;;18.88;4.35;;;12.20;99.90;;;;;;5050649;28;20029;-73
2023/06/02 05:04:27;;;;;;;12.98;4.63;;;12.30;99.90;;;;;;5050329;28;20029;-70
2023/06/02 05:06:53;;;;;;;8.40;4.00;;;12.30;99.90;;;;;;5050451;28;20505;-70
2023/06/02 05:09:19;;;;;;;8.88;3.75;;;12.40;99.90;;;;;;5050344;28;20098;-71
2023/06/02 05:11:45;;;;;;;7.22;2.95;;;12.40;99.90;;;;;;5050360;28;20025;-71
2023/06/02 05:14:11;;;;;;;7.57;3.47;;;12.40;99.90;;;;;;5049797;28;20123;-71
2023/06/02 05:16:37;;;;;;;12.77;2.85;;;12.60;99.90;;;;;;5050204;28;20025;-71
2023/06/02 05:19:03;;;;;;;5.93;2.88;;;12.70;99.90;;;;;;5049922;28;20484;-73
2023/06/02 05:21:30;;;;;;;7.03;2.95;;;12.70;99.90;;;;;;5050305;28;20061;-72
2023/06/02 05:23:56;;;;;;;16.70;3.50;;;12.80;99.90;;;;;;5048834;28;20125;-71
2023/06/02 05:26:22;;;;;;;9.23;2.80;;;13.00;99.90;;;;;;5049508;28;20211;-71
2023/06/02 05:28:51;;;;;;;8.23;2.90;;;12.90;99.90;;;;;;5049759;28;20037;-71
2023/06/02 05:31:17;;;;;;;10.73;2.72;;;13.00;99.90;;;;;;5049555;28;20041;-72
2023/06/02 05:33:43;;;;;;;9.23;3.17;;;13.10;99.90;;;;;;5050247;28;20061;-71
2023/06/02 05:36:08;;;;;;;10.43;2.95;;;13.10;99.90;;;;;;5049535;28;20056;-71
2023/06/02 05:38:34;;;;;;;6.60;2.53;;;13.20;99.90;;;;;;5049601;28;20033;-71
2023/06/02 05:41:00;;;;;;;7.93;2.75;;;13.20;99.90;;;;;;5050258;28;20037;-71
2023/06/02 05:43:26;;;;;;;8.18;2.40;;;13.30;99.90;;;;;;5048869;28;20070;-71
2023/06/02 05:45:52;;;;;;;8.95;2.83;;;13.50;99.90;;;;;;5048921;28;20154;-71
2023/06/02 05:48:18;;;;;;;4.30;2.38;;;13.50;99.90;;;;;;5049267;28;20500;-73
2023/06/02 05:50:43;;;;;;;9.23;2.47;;;13.60;99.90;;;;;;5049622;28;20466;-71
2023/06/02 05:53:09;;;;;;;8.40;2.45;;;13.60;99.90;;;;;;5049250;28;20025;-72
2023/06/02 05:55:36;;;;;;;10.18;2.30;;;13.50;99.90;;;;;;5049697;28;20036;-71
2023/06/02 05:58:02;;;;;;;5.70;2.80;;;13.30;99.90;;;;;;5049760;28;20037;-71
2023/06/02 06:00:28;;;;;;;7.57;2.72;;;13.20;99.90;;;;;;5049035;28;20544;-72
2023/06/02 06:02:54;;;;;;;7.40;2.65;;;13.10;99.90;;;;;;5048187;28;20069;-71
2023/06/02 06:05:20;;;;;;;7.55;2.58;;;13.00;99.90;;;;;;5048922;28;20029;-71
2023/06/02 06:07:45;;;;;;;6.38;2.65;;;12.90;99.90;;;;;;5049388;28;20109;-71
2023/06/02 06:10:11;;;;;;;6.18;2.08;;;12.90;99.90;;;;;;5048886;28;20352;-71
2023/06/02 06:12:37;;;;;;;8.77;2.30;;;12.90;99.90;;;;;;5049219;28;20459;-72
2023/06/02 06:15:03;;;;;;;7.50;2.38;;;13.00;99.90;;;;;;5049256;28;20446;-71
2023/06/02 06:17:28;;;;;;;5.88;2.35;;;13.00;99.90;;;;;;5048984;28;20055;-71
2023/06/02 06:19:54;;;;;;;6.22;2.53;;;13.00;99.90;;;;;;5049534;28;20113;-71
2023/06/02 06:22:20;;;;;;;8.45;2.80;;;13.10;99.90;;;;;;5049115;28;20431;-72
2023/06/02 06:24:45;;;;;;;7.28;2.47;;;13.10;99.90;;;;;;5049421;28;20376;-71
2023/06/02 06:27:11;;;;;;;8.65;2.72;;;13.20;99.90;;;;;;5048670;28;20045;-72
2023/06/02 06:29:37;;;;;;;5.20;2.03;;;13.20;99.90;;;;;;5049197;28;20025;-72
2023/06/02 06:32:06;;;;;;;6.47;2.38;;;13.20;99.90;;;;;;5047339;28;20063;-71
2023/06/02 06:34:31;;;;;;;9.07;2.47;;;13.10;99.90;;;;;;5049610;28;20027;-72
2023/06/02 06:36:57;;;;;;;6.72;2.75;;;13.10;99.90;;;;;;5049937;28;20108;-71
2023/06/02 06:39:23;;;;;;;7.28;2.60;;;13.20;99.90;;;;;;5049375;28;20096;-70
2023/06/02 06:41:48;;;;;;;8.20;2.88;;;13.10;99.90;;;;;;5050082;28;20040;-71
2023/06/02 06:44:14;;;;;;;7.07;2.28;;;13.10;99.90;;;;;;5049389;28;20482;-71
2023/06/02 06:46:40;;;;;;;7.50;2.65;;;13.10;99.90;;;;;;5049564;28;20528;-71
2023/06/02 06:49:07;;;;;;;7.03;2.50;;;13.10;99.90;;;;;;5049692;28;20025;-72
2023/06/02 06:51:33;;;;;;;7.20;2.30;;;13.10;99.90;;;;;;5049014;28;20017;-72
2023/06/02 06:53:59;;;;;;;7.65;2.20;;;13.10;99.90;;;;;;5049286;28;20029;-71
2023/06/02 06:56:25;;;;;;;6.63;2.40;;;13.10;99.90;;;;;;5048951;28;20459;-72
2023/06/02 06:58:52;;;;;;;7.65;2.40;;;13.10;99.90;;;;;;5053052;28;20090;-71
2023/06/02 07:01:17;;;;;;;6.78;2.30;;;13.20;99.90;;;;;;5052567;28;20029;-71
2023/06/02 07:03:43;;;;;;;4.85;2.10;;;13.20;99.90;;;;;;5053560;28;20068;-72
2023/06/02 07:06:09;;;;;;;9.02;2.88;;;13.10;99.90;;;;;;5052785;28;20025;-74
2023/06/02 07:08:38;;;;;;;7.03;2.60;;;13.10;99.90;;;;;;5052999;28;20029;-72
2023/06/02 07:11:03;;;;;;;7.50;2.50;;;13.20;99.90;;;;;;5053038;28;20029;-72
2023/06/02 07:13:30;;;;;;;5.38;2.42;;;13.20;99.90;;;;;;5052690;28;20048;-73
2023/06/02 07:15:55;;;;;;;25.27;5.43;;;13.20;99.90;;;;;;5053211;28;20332;-71
2023/06/02 07:18:21;;;;;;;9.98;2.42;;;13.40;99.90;;;;;;5052760;28;20027;-73
2023/06/02 07:20:47;;;;;;;6.22;2.72;;;13.30;99.90;;;;;;5052403;28;20152;-70
2023/06/02 07:23:12;;;;;;;7.90;2.00;;;13.40;99.90;;;;;;5052360;28;20040;-72
2023/06/02 07:25:38;;;;;;;6.70;2.80;;;13.50;99.90;;;;;;5052046;28;20144;-72
2023/06/02 07:28:04;;;;;;;8.57;2.17;;;13.60;99.90;;;;;;5053948;28;20068;-71
2023/06/02 07:30:31;;;;;;;6.68;2.17;;;13.70;99.90;;;;;;5051981;28;20869;-72
2023/06/02 07:32:57;;;;;;;8.48;2.55;;;13.80;99.90;;;;;;5052783;28;20429;-72
2023/06/02 07:35:23;;;;;;;6.30;2.08;;;13.90;99.90;;;;;;5052283;28;20127;-72
2023/06/02 07:37:53;;;;;;;5.63;2.33;;;14.00;99.90;;;;;;5052872;28;20478;-73
2023/06/02 07:40:19;;;;;;;3.03;2.13;;;13.90;99.90;;;;;;5052172;28;20418;-73
2023/06/02 07:42:45;;;;;;;10.27;2.25;;;13.90;99.90;;;;;;5052916;28;20111;-72
2023/06/02 07:45:11;;;;;;;5.43;2.10;;;13.90;99.90;;;;;;5052059;28;20466;-75
2023/06/02 07:47:37;;;;;;;10.05;2.00;;;13.80;99.90;;;;;;5051989;28;20021;-72
2023/06/02 07:50:03;;;;;;;4.38;2.30;;;13.90;99.90;;;;;;5050655;28;20068;-73
2023/06/02 07:52:29;;;;;;;6.10;2.40;;;13.90;99.90;;;;;;5051568;28;20053;-73
2023/06/02 07:54:55;;;;;;;8.18;2.10;;;13.90;99.90;;;;;;5051994;28;20407;-72
2023/06/02 07:57:21;;;;;;;4.93;2.45;;;13.90;99.90;;;;;;5051290;28;20414;-72
2023/06/02 07:59:48;;;;;;;9.93;2.30;;;14.00;99.90;;;;;;5051906;28;20037;-72
2023/06/02 08:02:13;;;;;;;3.88;1.90;;;14.00;99.90;;;;;;5051829;28;20078;-75
2023/06/02 08:04:39;;;;;;;11.00;2.72;;;14.10;99.90;;;;;;5051250;28;20429;-72
2023/06/02 08:07:05;;;;;;;6.82;2.40;;;14.10;99.90;;;;;;5051685;28;20029;-72
2023/06/02 08:09:31;;;;;;;7.95;2.28;;;14.10;99.90;;;;;;5050258;28;20064;-72
2023/06/02 08:11:57;;;;;;;9.13;2.60;;;14.20;99.90;;;;;;5051822;28;20029;-72
2023/06/02 08:14:22;;;;;;;9.48;2.17;;;14.20;99.90;;;;;;5051209;28;20041;-73
2023/06/02 08:16:50;;;;;;;6.10;2.05;;;14.40;99.90;;;;;;5051676;28;20358;-73
2023/06/02 08:19:17;;;;;;;3.95;2.28;;;14.30;99.90;;;;;;5051136;28;20036;-74
2023/06/02 08:21:43;;;;;;;14.75;2.83;;;14.20;99.90;;;;;;5050292;28;20374;-73
2023/06/02 08:24:09;;;;;;;8.43;2.30;;;14.20;99.90;;;;;;5051403;28;20028;-72
2023/06/02 08:26:39;;;;;;;8.73;2.42;;;14.00;99.90;;;;;;5050557;28;20234;-73
2023/06/02 08:29:08;;;;;;;6.90;2.58;;;14.00;99.90;;;;;;5051610;28;20495;-72
2023/06/02 08:31:35;;;;;;;10.70;2.70;;;13.90;99.90;;;;;;5050952;28;20169;-73
2023/06/02 08:34:04;;;;;;;6.97;2.40;;;13.90;99.90;;;;;;5051668;28;20124;-72
2023/06/02 08:36:33;;;;;;;5.82;2.30;;;13.90;99.90;;;;;;5050736;28;20450;-73
2023/06/02 08:38:59;;;;;;;7.32;2.40;;;14.00;99.90;;;;;;5051640;28;20069;-73
2023/06/02 08:41:26;;;;;;;5.00;2.17;;;14.10;99.90;;;;;;5051391;28;20037;-73
2023/06/02 08:43:52;;;;;;;5.22;2.17;;;14.00;99.90;;;;;;5052000;28;20114;-73
2023/06/02 08:46:18;;;;;;;8.75;2.40;;;13.90;99.90;;;;;;5050931;28;20028;-76
2023/06/02 08:48:45;;;;;;;8.45;2.67;;;13.70;99.90;;;;;;5050975;28;20021;-73
2023/06/02 08:51:13;;;;;;;6.85;2.28;;;13.80;99.90;;;;;;5050946;28;20031;-73
2023/06/02 08:53:39;;;;;;;9.65;2.60;;;13.90;99.90;;;;;;5050565;28;20056;-73
2023/06/02 08:56:05;;;;;;;6.95;2.05;;;14.10;99.90;;;;;;5050915;28;20059;-73
2023/06/02 08:58:32;;;;;;;8.27;2.45;;;14.20;99.90;;;;;;5050586;28;20025;-73
2023/06/02 09:00:58;;;;;;;10.35;3.15;;;14.00;99.90;;;;;;5051292;28;20109;-73
2023/06/02 09:03:27;;;;;;;6.35;2.17;;;14.10;99.90;;;;;;5050451;28;20099;-72
2023/06/02 09:05:53;;;;;;;4.50;1.88;;;14.20;99.90;;;;;;5050607;28;20104;-72
2023/06/02 09:08:20;;;;;;;8.55;2.35;;;14.40;99.90;;;;;;5050139;28;20513;-74
2023/06/02 09:10:47;;;;;;;9.30;3.13;;;14.60;99.90;;;;;;5050994;28;20033;-71
2023/06/02 09:13:33;;;;;;;12.05;2.97;;;14.70;99.90;;;;;;5050719;28;20035;-72
2023/06/02 09:16:01;;;;;;;8.05;2.45;;;14.60;99.90;;;;;;5050574;28;20103;-71
2023/06/02 09:18:27;;;;;;;9.93;2.65;;;14.60;99.90;;;;;;5048620;28;20043;-72
2023/06/02 09:20:54;;;;;;;6.40;2.13;;;14.30;99.90;;;;;;5048784;28;20037;-72
2023/06/02 09:23:20;;;;;;;5.88;2.42;;;14.40;99.90;;;;;;5050180;28;20039;-75
2023/06/02 09:25:46;;;;;;;8.77;2.72;;;14.20;99.90;;;;;;5050018;28;20056;-72
2023/06/02 09:28:12;;;;;;;7.30;2.50;;;14.20;99.90;;;;;;5050409;28;20037;-72
2023/06/02 09:30:38;;;;;;;10.75;2.72;;;14.10;99.90;;;;;;5049546;28;20037;-72
2023/06/02 09:33:14;;;;;;;8.30;2.40;;;14.30;99.90;;;;;;5050424;28;20041;-72
2023/06/02 09:35:45;;;;;;;12.25;2.50;;;14.40;99.90;;;;;;5049742;28;20021;-72
2023/06/02 09:38:16;;;;;;;10.13;2.45;;;14.50;99.90;;;;;;5050341;28;20419;-73
2023/06/02 09:40:43;;;;;;;6.40;2.45;;;14.50;99.90;;;;;;5050027;28;20600;-73
2023/06/02 09:43:12;;;;;;;5.90;1.92;;;14.80;99.90;;;;;;5050530;28;20180;-73
2023/06/02 09:45:47;;;;;;;8.82;2.35;;;14.80;99.90;;;;;;5049629;28;20021;-73
2023/06/02 09:48:22;;;;;;;10.77;2.45;;;15.20;99.90;;;;;;5049977;28;20044;-73
2023/06/02 09:50:49;;;;;;;5.10;2.33;;;15.00;99.90;;;;;;5050470;28;20029;-73
2023/06/02 09:53:17;;;;;;;10.95;2.30;;;15.00;99.90;;;;;;5050319;28;20064;-73
2023/06/02 09:55:45;;;;;;;6.72;2.25;;;14.80;99.90;;;;;;5049450;28;20045;-73
2023/06/02 09:58:12;;;;;;;10.10;3.10;;;14.80;99.90;;;;;;5049818;28;20036;-73
2023/06/02 10:00:38;;;;;;;7.85;2.40;;;15.00;99.90;;;;;;5049517;28;20029;-73
2023/06/02 10:03:04;;;;;;;7.07;2.15;;;15.00;99.90;;;;;;5050090;28;20029;-74
2023/06/02 10:05:30;;;;;;;5.95;2.00;;;14.90;99.90;;;;;;5049537;28;20060;-73
2023/06/02 10:08:01;;;;;;;5.57;2.17;;;14.90;99.90;;;;;;5050027;28;20029;-73
2023/06/02 10:11:08;;;;;;;7.82;2.42;;;15.00;99.90;;;;;;5049231;28;20029;-73
2023/06/02 10:13:40;;;;;;;14.40;2.72;;;15.00;99.90;;;;;;5034975;28;20056;-73
2023/06/02 10:16:15;;;;;;;6.18;2.00;;;15.00;99.90;;;;;;5050014;28;20048;-73
2023/06/02 10:18:59;;;;;;;9.00;2.60;;;15.10;99.90;;;;;;5049127;28;20051;-72
2023/06/02 10:22:07;;;;;;;5.38;2.22;;;15.40;99.90;;;;;;5049100;28;20033;-73
2023/06/02 10:24:48;;;;;;;8.45;2.38;;;15.70;99.90;;;;;;5029422;28;20041;-73
2023/06/02 10:27:31;;;;;;;5.50;2.30;;;16.00;99.90;;;;;;5049217;28;20079;-74
2023/06/02 10:29:57;;;;;;;7.72;2.65;;;16.10;99.90;;;;;;5050033;28;20025;-73
2023/06/02 10:32:28;;;;;;;14.40;3.03;;;16.10;99.90;;;;;;5051002;28;20102;-76
2023/06/02 10:34:57;;;;;;;6.25;2.22;;;16.00;99.90;;;;;;5053204;28;20021;-73
2023/06/02 10:37:24;;;;;;;6.72;2.60;;;15.70;99.90;;;;;;5052501;28;20035;-76
2023/06/02 10:39:56;;;;;;;8.48;2.60;;;15.60;99.90;;;;;;5052639;28;20423;-73
2023/06/02 10:42:23;;;;;;;;;;;15.60;99.90;;;;;;5053936;28;20032;-76
2023/06/02 10:44:51;;;;;;;7.15;2.55;;;15.20;99.90;;;;;;5052390;28;19999;-74
2023/06/02 10:47:17;;;;;;;5.80;2.38;;;14.90;99.90;;;;;;5052935;28;20092;-73
2023/06/02 10:49:55;;;;;;;8.30;2.30;;;14.90;99.90;;;;;;5052028;28;20024;-73
2023/06/02 10:52:21;;;;;;;9.55;2.25;;;15.20;99.90;;;;;;5052921;28;20411;-72
2023/06/02 10:55:12;;;;;;;10.50;2.90;;;15.50;99.90;;;;;;5051870;28;20025;-74
2023/06/02 10:58:03;;;;;;;9.73;2.50;;;15.90;99.90;;;;;;5051928;28;20056;-73
2023/06/02 11:00:43;;;;;;;7.88;2.92;;;15.80;99.90;;;;;;5052180;28;20458;-73
2023/06/02 11:03:15;;;;;;;10.82;2.50;;;15.50;99.90;;;;;;5052878;28;20029;-73
2023/06/02 11:05:42;;;;;;;8.60;2.72;;;15.30;99.90;;;;;;5052384;28;20039;-73
2023/06/02 11:08:21;;;;;;;10.05;2.80;;;15.10;99.90;;;;;;5051416;28;20453;-71
2023/06/02 11:10:58;;;;;;;8.57;2.40;;;15.10;99.90;;;;;;5052620;28;20032;-73
2023/06/02 11:13:25;;;;;;;7.25;2.33;;;15.00;99.90;;;;;;5052711;28;20462;-74
2023/06/02 11:15:54;;;;;;;11.15;3.15;;;15.00;99.90;;;;;;5053121;28;20029;-72
2023/06/02 11:18:23;;;;;;;9.10;3.33;;;15.10;99.90;;;;;;5052742;28;20033;-72
2023/06/02 11:20:50;;;;;;;8.40;2.78;;;15.20;99.90;;;;;;5052518;28;20060;-72
2023/06/02 11:23:19;;;;;;;7.70;2.78;;;15.20;99.90;;;;;;5052838;28;20036;-72
2023/06/02 11:25:46;;;;;;;8.15;3.28;;;14.90;99.90;;;;;;5051769;28;20044;-71
2023/06/02 11:28:30;;;;;;;11.68;3.00;;;14.90;99.90;;;;;;5052705;28;20108;-72
2023/06/02 11:31:19;;;;;;;9.13;3.10;;;14.80;99.90;;;;;;5052438;28;20082;-72
2023/06/02 11:33:51;;;;;;;12.85;2.80;;;14.70;99.90;;;;;;5052141;28;20100;-72
2023/06/02 11:36:29;;;;;;;9.90;3.20;;;14.80;99.90;;;;;;5052403;28;20519;-72
2023/06/02 11:39:02;;;;;;;11.18;3.17;;;14.90;99.90;;;;;;5051853;28;20091;-72
2023/06/02 11:41:28;;;;;;;10.80;2.97;;;15.10;99.90;;;;;;5052025;28;20029;-72
2023/06/02 11:44:03;;;;;;;6.57;3.15;;;15.10;99.90;;;;;;5050556;28;20382;-71
2023/06/02 11:46:29;;;;;;;9.73;3.35;;;15.00;99.90;;;;;;5051401;28;20102;-72
2023/06/02 11:48:55;;;;;;;9.07;3.47;;;15.20;99.90;;;;;;5052139;28;20025;-72
2023/06/02 11:51:22;;;;;;;7.85;2.90;;;15.40;99.90;;;;;;5052137;28;20036;-71
2023/06/02 11:53:58;;;;;;;8.32;3.50;;;15.40;99.90;;;;;;5051385;28;20037;-72
2023/06/02 11:56:25;;;;;;;9.40;3.45;;;15.60;99.90;;;;;;5052471;28;20048;-71
2023/06/02 11:58:51;;;;;;;19.65;4.70;;;15.50;99.90;;;;;;5051590;28;20065;-72
2023/06/02 12:01:18;;;;;;;12.45;3.78;;;15.40;99.90;;;;;;5051864;28;20446;-73
2023/06/02 12:04:00;;;;;;;13.48;3.50;;;15.30;99.90;;;;;;5051332;28;20102;-73
2023/06/02 12:06:27;;;;;;;8.65;3.47;;;15.40;99.90;;;;;;5051748;28;20487;-76
2023/06/02 12:08:53;;;;;;;11.00;3.35;;;15.30;99.90;;;;;;5051338;28;20513;-73
2023/06/02 12:11:21;;;;;;;7.30;3.35;;;15.40;99.90;;;;;;5051409;28;20112;-72
2023/06/02 12:14:02;;;;;;;8.30;3.40;;;15.50;99.90;;;;;;5050789;28;20455;-71
2023/06/02 12:16:29;;;;;;;7.55;3.30;;;15.40;99.90;;;;;;5051491;28;20025;-75
2023/06/02 12:19:19;;;;;;;10.20;3.42;;;15.40;99.90;;;;;;5051792;28;20033;-72
2023/06/02 12:21:46;;;;;;;11.65;3.60;;;15.10;99.90;;;;;;5051266;28;20041;-72
2023/06/02 12:24:30;;;;;;;13.68;3.40;;;15.20;99.90;;;;;;5051647;28;20040;-72
2023/06/02 12:26:56;;;;;;;10.73;3.20;;;15.20;99.90;;;;;;5051150;28;20128;-72
2023/06/02 12:29:23;;;;;;;12.48;3.78;;;15.20;99.90;;;;;;5051114;28;20525;-72
2023/06/02 12:32:24;;;;;;;10.50;3.85;;;15.30;99.90;;;;;;5049376;28;20089;-72
2023/06/02 12:34:49;;;;;;;10.10;4.20;;;15.20;99.90;;;;;;5050926;28;20044;-71
2023/06/02 12:37:17;;;;;;;10.20;3.65;;;15.20;99.90;;;;;;5051181;28;20064;-71
2023/06/02 12:39:43;;;;;;;12.38;4.30;;;15.10;99.90;;;;;;5050608;28;20040;-71
2023/06/02 12:42:13;;;;;;;10.77;4.60;;;14.90;99.90;;;;;;5051155;28;20371;-72
2023/06/02 12:44:39;;;;;;;8.55;4.03;;;15.00;99.90;;;;;;5050308;28;20040;-72
2023/06/02 12:47:06;;;;;;;11.02;4.05;;;15.20;99.90;;;;;;5050629;28;20093;-72
2023/06/02 12:49:32;;;;;;;12.48;4.40;;;15.10;99.90;;;;;;5050353;28;20407;-73